.
WxDataArchive / Data Records for 2011-01-22
2011-01-21 January 2011 2011-01-23

Data Records for Saturday, 22 January 2011

Time	Temp	Chill	HIndex	Humid	Dewpt	 Wind 	HiWind	WindDir	Rain 	Barom 
-----	----	-----	------	-----	-----	------	------	-------	-----	----- 
00:00	3.0	3.0	3.0	73	-3.7	0	0	---	0.00	30.112 
00:05	3.0	3.0	3.0	72	-3.9	0	0	---	0.00	30.112 
00:10	3.0	3.0	3.0	72	-3.9	0	1	248	0.00	30.112 
00:15	3.2	3.2	3.2	72	-3.8	0	2	248	0.00	30.105 
00:20	3.2	3.2	3.2	72	-3.8	0	2	248	0.00	30.105 
00:25	3.4	3.4	3.4	72	-3.6	0	1	248	0.00	30.105 
00:30	3.4	3.4	3.4	71	-3.9	0	1	248	0.00	30.099 
00:35	3.2	3.2	3.2	71	-4.0	0	1	248	0.00	30.099 
00:40	3.2	3.2	3.2	71	-4.0	0	2	248	0.00	30.099 
00:45	3.0	3.0	3.0	71	-4.2	0	0	---	0.00	30.089 
00:50	3.0	3.0	3.0	71	-4.2	0	0	---	0.00	30.089 
00:55	2.6	2.6	2.6	70	-4.9	0	0	---	0.00	30.089 
01:00	2.4	2.4	2.4	70	-5.1	0	0	---	0.00	30.079 
01:05	2.0	2.0	2.0	71	-5.2	0	0	---	0.00	30.079 
01:10	1.8	1.8	1.8	71	-5.4	0	0	---	0.00	30.079 
01:15	1.8	1.8	1.8	72	-5.1	0	0	---	0.00	30.073 
01:20	1.7	1.7	1.7	72	-5.2	0	0	---	0.00	30.073 
01:25	1.7	1.7	1.7	72	-5.2	0	0	---	0.00	30.073 
01:30	1.5	1.5	1.5	73	-5.1	0	0	---	0.00	30.066 
01:35	1.3	1.3	1.3	73	-5.3	0	0	---	0.00	30.066 
01:40	0.9	0.9	0.9	73	-5.7	0	0	---	0.00	30.066 
01:45	0.7	0.7	0.7	73	-5.9	0	0	---	0.00	30.060 
01:50	0.5	0.5	0.5	73	-6.1	0	0	---	0.00	30.060 
01:55	0.3	0.3	0.3	74	-6.0	0	0	---	0.00	30.060 
02:00	0.3	0.3	0.3	74	-6.0	0	0	---	0.00	30.055 
02:05	0.0	0.0	0.0	74	-6.3	0	0	---	0.00	30.055 
02:10	-0.2	-0.2	-0.2	75	-6.2	0	0	---	0.00	30.055 
02:15	-0.6	-0.6	-0.6	74	-6.9	0	0	---	0.00	30.054 
02:20	-0.8	-0.8	-0.8	75	-6.8	0	0	---	0.00	30.054 
02:25	-1.0	-1.0	-1.0	75	-7.0	0	0	---	0.00	30.054 
02:30	-1.0	-1.0	-1.0	76	-6.7	0	0	---	0.00	30.060 
02:35	-1.2	-1.2	-1.2	76	-6.9	0	0	---	0.00	30.060 
02:40	-1.2	-1.2	-1.2	77	-6.6	0	0	---	0.00	30.060 
02:45	-1.4	-1.4	-1.4	77	-6.8	0	0	---	0.00	30.062 
02:50	-1.4	-1.4	-1.4	77	-6.8	0	0	---	0.00	30.062 
02:55	-1.6	-1.6	-1.6	77	-7.0	0	0	---	0.00	30.062 
03:00	-1.6	-1.6	-1.6	77	-7.0	0	0	---	0.00	30.058 
03:05	-1.6	-1.6	-1.6	78	-6.8	0	0	---	0.00	30.058 
03:10	-1.8	-1.8	-1.8	78	-7.0	0	0	---	0.00	30.058 
03:15	-1.8	-1.8	-1.8	78	-7.0	0	0	---	0.00	30.057 
03:20	-2.0	-2.0	-2.0	78	-7.1	0	0	---	0.00	30.057 
03:25	-2.0	-2.0	-2.0	78	-7.1	0	0	---	0.00	30.057 
03:30	-1.8	-1.8	-1.8	78	-7.0	0	0	---	0.00	30.056 
03:35	-1.6	-1.6	-1.6	79	-6.5	0	0	---	0.00	30.056 
03:40	-1.4	-1.4	-1.4	79	-6.3	0	0	---	0.00	30.056 
03:45	-1.2	-1.2	-1.2	79	-6.1	0	0	---	0.00	30.055 
03:50	-0.8	-0.8	-0.8	80	-5.5	0	1	248	0.00	30.055 
03:55	-0.4	-0.4	-0.4	80	-5.1	0	0	---	0.00	30.055 
04:00	-0.2	-0.2	-0.2	80	-4.9	0	0	---	0.00	30.045 
04:05	-0.2	-0.2	-0.2	80	-4.9	0	1	248	0.00	30.045 
04:10	-0.2	-0.2	-0.2	79	-5.1	0	0	---	0.00	30.045 
04:15	-0.2	-0.2	-0.2	79	-5.1	0	0	---	0.00	30.043 
04:20	-0.2	-0.2	-0.2	79	-5.1	0	0	---	0.00	30.043 
04:25	-0.4	-0.4	-0.4	79	-5.3	0	0	---	0.00	30.043 
04:30	-0.4	-0.4	-0.4	78	-5.6	0	0	---	0.00	30.039 
04:35	-0.6	-0.6	-0.6	78	-5.8	0	0	---	0.00	30.039 
04:40	-0.6	-0.6	-0.6	78	-5.8	0	0	---	0.00	30.039 
04:45	-0.8	-0.8	-0.8	78	-6.0	0	0	---	0.00	30.034 
04:50	-1.0	-1.0	-1.0	78	-6.2	0	0	---	0.00	30.034 
04:55	-1.2	-1.2	-1.2	78	-6.4	0	0	---	0.00	30.034 
05:00	-1.2	-1.2	-1.2	78	-6.4	0	0	---	0.00	30.030 
05:05	-1.2	-1.2	-1.2	78	-6.4	0	0	---	0.00	30.030 
05:10	-1.4	-1.4	-1.4	78	-6.6	0	0	---	0.00	30.030 
05:15	-1.4	-1.4	-1.4	78	-6.6	0	0	---	0.00	30.029 
05:20	-1.2	-1.2	-1.2	78	-6.4	0	0	---	0.00	30.029 
05:25	-1.0	-1.0	-1.0	78	-6.2	0	0	---	0.00	30.029 
05:30	-0.8	-0.8	-0.8	78	-6.0	0	0	---	0.00	30.030 
05:35	-0.6	-0.6	-0.6	78	-5.8	0	0	---	0.00	30.030 
05:40	-0.2	-0.2	-0.2	79	-5.1	0	0	---	0.00	30.030 
05:45	0.1	0.1	0.1	79	-4.8	0	0	---	0.00	30.023 
05:50	0.3	0.3	0.3	79	-4.6	0	1	248	0.00	30.023 
05:55	0.7	0.7	0.7	79	-4.3	0	1	248	0.00	30.023 
06:00	0.9	0.9	0.9	79	-4.1	0	1	248	0.00	30.024 
06:05	1.1	1.1	1.1	78	-4.1	0	1	248	0.00	30.024 
06:10	1.3	1.3	1.3	78	-3.9	0	2	248	0.00	30.024 
06:15	1.5	1.5	1.5	78	-3.7	0	1	248	0.00	30.021 
06:20	1.7	1.7	1.7	78	-3.5	0	2	248	0.00	30.021 
06:25	1.8	1.8	1.8	77	-3.7	0	1	180	0.00	30.021 
06:30	1.8	1.8	1.8	77	-3.7	0	1	180	0.00	30.015 
06:35	1.8	1.8	1.8	77	-3.7	0	1	180	0.00	30.015 
06:40	2.0	2.0	2.0	76	-3.8	0	2	248	0.00	30.015 
06:45	2.0	2.0	2.0	76	-3.8	0	1	248	0.00	30.013 
06:50	2.0	2.0	2.0	75	-4.1	0	1	0	0.00	30.013 
06:55	2.2	2.2	2.2	75	-3.9	0	1	0	0.00	30.013 
07:00	2.2	2.2	2.2	75	-3.9	0	2	90	0.00	30.011 
07:05	2.2	2.2	2.2	75	-3.9	0	1	90	0.00	30.011 
07:10	2.2	2.2	2.2	74	-4.2	0	2	90	0.00	30.011 
07:15	2.2	2.2	2.2	74	-4.2	0	1	90	0.00	30.001 
07:20	2.2	2.2	2.2	74	-4.2	0	2	90	0.00	30.001 
07:25	2.2	2.2	2.2	73	-4.4	0	2	112	0.00	30.001 
07:30	2.4	2.4	2.4	73	-4.2	0	3	292	0.00	30.002 
07:35	2.4	2.4	2.4	73	-4.2	0	2	270	0.00	30.002 
07:40	2.6	2.6	2.6	72	-4.3	0	3	248	0.00	30.002 
07:45	2.8	2.8	2.8	72	-4.1	0	2	248	0.00	29.995 
07:50	2.8	2.8	2.8	71	-4.4	1	3	248	0.00	29.995 
07:55	3.0	3.0	3.0	71	-4.2	0	3	248	0.00	29.995 
08:00	3.2	3.2	3.2	70	-4.3	1	4	248	0.00	29.997 
08:05	3.2	3.2	3.2	70	-4.3	0	3	270	0.00	29.997 
08:10	3.4	3.4	3.4	69	-4.4	0	1	248	0.00	29.997 
08:15	3.4	3.4	3.4	69	-4.4	0	3	248	0.00	29.999 
08:20	3.5	3.5	3.5	69	-4.4	0	2	248	0.00	29.999 
08:25	3.7	3.7	3.7	69	-4.2	1	3	248	0.00	29.999 
08:30	3.9	3.9	3.9	69	-4.0	0	2	248	0.00	30.001 
08:35	4.1	4.1	4.1	69	-3.8	0	3	248	0.00	30.001 
08:40	4.3	4.3	4.3	69	-3.6	0	2	248	0.00	30.001 
08:45	4.5	4.5	4.5	69	-3.4	1	3	248	0.00	30.010 
08:50	4.7	4.7	4.7	68	-3.5	0	3	248	0.00	30.010 
08:55	5.0	5.0	5.0	69	-2.9	0	3	248	0.00	30.010 
09:00	5.2	5.2	5.2	69	-2.7	0	2	248	0.00	30.001 
09:05	5.4	5.4	5.4	69	-2.5	1	3	248	0.00	30.001 
09:10	5.6	5.6	5.6	69	-2.3	0	2	248	0.00	30.001 
09:15	5.8	5.8	5.8	69	-2.1	0	2	248	0.00	29.995 
09:20	6.0	6.0	6.0	69	-1.9	0	2	248	0.00	29.995 
09:25	6.1	6.1	6.1	69	-1.9	0	2	248	0.00	29.995 
09:30	6.5	6.5	6.5	68	-1.8	1	3	248	0.00	29.996 
09:35	6.9	6.9	6.9	68	-1.4	0	3	248	0.00	29.996 
09:40	7.2	7.2	7.2	68	-1.1	1	3	248	0.00	29.996 
09:45	7.4	7.4	7.4	67	-1.2	1	3	270	0.00	29.993 
09:50	7.7	7.7	7.7	68	-0.6	0	3	248	0.00	29.993 
09:55	7.9	7.9	7.9	68	-0.4	1	4	248	0.00	29.993 
10:00	8.1	8.1	8.1	68	-0.2	1	4	248	0.00	29.995 
10:05	8.1	8.1	8.1	68	-0.2	1	5	248	0.00	29.995 
10:10	8.3	8.3	8.3	69	0.3	1	3	248	0.00	29.995 
10:15	8.4	8.4	8.4	70	0.7	1	4	248	0.00	29.997 
10:20	8.6	8.6	8.6	71	1.2	1	4	248	0.00	29.997 
10:25	8.6	8.6	8.6	71	1.2	1	3	248	0.00	29.997 
10:30	8.8	8.8	8.8	72	1.6	1	6	248	0.00	29.991 
10:35	9.0	9.0	9.0	73	2.1	1	3	248	0.00	29.991 
10:40	9.2	9.2	9.2	73	2.3	1	3	248	0.00	29.991 
10:45	9.5	9.5	9.5	74	2.9	1	4	248	0.00	29.990 
10:50	9.7	9.7	9.7	73	2.8	1	4	248	0.00	29.990 
10:55	9.9	9.9	9.9	74	3.3	1	3	248	0.00	29.990 
11:00	10.2	10.2	10.2	74	3.6	1	5	248	0.00	29.980 
11:05	10.4	10.4	10.4	74	3.8	1	5	248	0.00	29.980 
11:10	10.5	10.5	10.5	74	3.9	1	4	248	0.00	29.980 
11:15	10.5	10.5	10.5	73	3.6	1	5	248	0.00	29.976 
11:20	10.9	10.9	10.9	73	4.0	1	3	248	0.00	29.976 
11:25	11.2	11.2	11.2	73	4.3	1	5	248	0.00	29.976 
11:30	11.2	11.2	11.2	72	4.0	2	5	248	0.00	29.977 
11:35	11.6	11.6	11.6	72	4.4	1	4	248	0.00	29.977 
11:40	11.9	11.9	11.9	71	4.3	1	6	248	0.00	29.977 
11:45	12.1	12.1	12.1	70	4.2	1	4	248	0.00	29.970 
11:50	12.3	12.3	12.3	70	4.4	1	6	248	0.00	29.970 
11:55	12.6	12.6	12.6	70	4.7	1	4	248	0.00	29.970 
12:00	12.6	12.6	12.6	69	4.4	3	7	248	0.00	29.958 
12:05	12.8	12.8	12.8	69	4.6	3	7	248	0.00	29.958 
12:10	12.9	12.9	12.9	69	4.7	3	6	225	0.00	29.958 
12:15	13.5	13.5	13.5	69	5.3	2	7	248	0.00	29.955 
12:20	14.0	14.0	14.0	69	5.7	3	7	248	0.00	29.955 
12:25	14.4	14.4	14.4	68	5.8	2	6	225	0.00	29.955 
12:30	15.1	15.1	15.1	67	6.1	2	7	248	0.00	29.945 
12:35	15.6	15.6	15.6	67	6.6	2	5	248	0.00	29.945 
12:40	16.1	16.1	16.1	66	6.8	2	5	225	0.00	29.945 
12:45	16.5	16.5	16.5	65	6.8	3	9	248	0.00	29.942 
12:50	16.4	16.4	16.4	65	6.7	3	7	225	0.00	29.942 
12:55	16.4	16.4	16.4	65	6.7	3	6	248	0.00	29.942 
13:00	16.4	16.4	16.4	65	6.7	3	9	248	0.00	29.938 
13:05	16.5	16.5	16.5	66	7.2	2	6	248	0.00	29.938 
13:10	16.7	16.7	16.7	65	7.0	2	7	248	0.00	29.938 
13:15	16.9	16.9	16.9	66	7.5	3	6	248	0.00	29.929 
13:20	17.2	17.2	17.2	66	7.8	2	5	248	0.00	29.929 
13:25	17.5	17.5	17.5	66	8.1	2	6	248	0.00	29.929 
13:30	17.5	17.5	17.5	66	8.1	2	6	248	0.00	29.926 
13:35	17.5	11.3	17.5	67	8.4	4	10	248	0.00	29.926 
13:40	17.5	17.5	17.5	67	8.4	3	7	248	0.00	29.926 
13:45	17.5	17.5	17.5	67	8.4	2	9	248	0.00	29.924 
13:50	17.8	17.8	17.8	67	8.7	2	6	248	0.00	29.924 
13:55	17.8	17.8	17.8	67	8.7	3	7	248	0.00	29.924 
14:00	18.1	18.1	18.1	67	9.0	2	6	248	0.00	29.911 
14:05	18.3	18.3	18.3	67	9.2	2	6	248	0.00	29.911 
14:10	18.6	18.6	18.6	67	9.5	2	6	248	0.00	29.911 
14:15	18.9	18.9	18.9	67	9.8	2	3	225	0.00	29.908 
14:20	18.9	18.9	18.9	66	9.4	2	7	248	0.00	29.908 
14:25	18.8	18.8	18.8	67	9.7	3	6	270	0.00	29.908 
14:30	18.4	18.4	18.4	67	9.3	3	6	248	0.00	29.910 
14:35	18.3	18.3	18.3	67	9.2	2	6	248	0.00	29.910 
14:40	18.4	18.4	18.4	68	9.6	3	6	248	0.00	29.910 
14:45	18.6	18.6	18.6	68	9.8	2	7	248	0.00	29.913 
14:50	18.6	18.6	18.6	68	9.8	2	5	248	0.00	29.913 
14:55	18.8	18.8	18.8	68	10.0	1	5	248	0.00	29.913 
15:00	18.6	18.6	18.6	68	9.8	2	8	248	0.00	29.913 
15:05	18.6	18.6	18.6	69	10.2	2	6	248	0.00	29.913 
15:10	18.6	18.6	18.6	69	10.2	2	5	248	0.00	29.913 
15:15	18.6	18.6	18.6	69	10.2	2	5	248	0.00	29.915 
15:20	18.6	18.6	18.6	69	10.2	2	6	248	0.00	29.915 
15:25	18.8	18.8	18.8	70	10.7	2	5	248	0.00	29.915 
15:30	18.6	18.6	18.6	70	10.5	2	5	248	0.00	29.922 
15:35	18.6	18.6	18.6	71	10.8	1	3	248	0.00	29.922 
15:40	18.8	18.8	18.8	71	11.0	1	3	248	0.00	29.922 
15:45	18.8	18.8	18.8	71	11.0	2	6	248	0.00	29.919 
15:50	18.6	18.6	18.6	71	10.8	2	4	248	0.00	29.919 
15:55	18.6	18.6	18.6	70	10.5	2	5	248	0.00	29.919 
16:00	18.3	18.3	18.3	70	10.2	3	5	270	0.00	29.925 
16:05	18.3	18.3	18.3	71	10.5	2	5	225	0.00	29.925 
16:10	18.3	18.3	18.3	71	10.5	2	6	248	0.00	29.925 
16:15	18.3	18.3	18.3	71	10.5	2	5	270	0.00	29.927 
16:20	18.1	18.1	18.1	71	10.3	2	7	270	0.00	29.927 
16:25	18.3	18.3	18.3	71	10.5	1	2	248	0.00	29.927 
16:30	18.3	18.3	18.3	72	10.8	1	4	248	0.00	29.935 
16:35	18.1	18.1	18.1	71	10.3	2	6	248	0.00	29.935 
16:40	18.1	18.1	18.1	72	10.6	2	5	248	0.00	29.935 
16:45	18.0	18.0	18.0	72	10.5	2	5	248	0.00	29.945 
16:50	18.0	18.0	18.0	72	10.5	2	6	248	0.00	29.945 
16:55	17.8	17.8	17.8	72	10.3	2	5	225	0.00	29.945 
17:00	17.7	17.7	17.7	73	10.5	2	6	270	0.00	29.952 
17:05	17.7	17.7	17.7	73	10.5	1	3	248	0.00	29.952 
17:10	17.7	17.7	17.7	73	10.5	1	4	248	0.00	29.952 
17:15	17.5	17.5	17.5	73	10.3	3	9	292	0.00	29.954 
17:20	17.3	17.3	17.3	74	10.5	2	5	248	0.00	29.954 
17:25	17.3	17.3	17.3	74	10.5	2	5	248	0.00	29.954 
17:30	17.3	17.3	17.3	75	10.8	2	5	248	0.00	29.959 
17:35	17.2	17.2	17.2	76	11.0	2	4	248	0.00	29.959 
17:40	17.2	17.2	17.2	76	11.0	1	3	248	0.00	29.959 
17:45	17.2	17.2	17.2	77	11.3	2	6	248	0.00	29.965 
17:50	17.2	17.2	17.2	77	11.3	1	3	248	0.00	29.965 
17:55	17.2	17.2	17.2	78	11.5	1	5	248	0.00	29.965 
18:00	17.0	17.0	17.0	79	11.6	1	4	248	0.00	29.974 
18:05	17.0	17.0	17.0	79	11.6	1	3	248	0.00	29.974 
18:10	16.9	16.9	16.9	79	11.5	2	5	270	0.00	29.974 
18:15	16.9	16.9	16.9	80	11.8	1	3	248	0.00	29.980 
18:20	16.9	16.9	16.9	80	11.8	1	2	248	0.00	29.980 
18:25	16.9	16.9	16.9	80	11.8	2	4	270	0.00	29.980 
18:30	16.7	16.7	16.7	80	11.6	2	4	248	0.00	29.987 
18:35	16.7	16.7	16.7	79	11.3	2	3	270	0.00	29.987 
18:40	16.7	16.7	16.7	79	11.3	1	4	225	0.00	29.987 
18:45	16.5	16.5	16.5	79	11.1	1	3	270	0.00	29.989 
18:50	16.5	16.5	16.5	79	11.1	2	4	270	0.00	29.989 
18:55	16.5	16.5	16.5	78	10.9	2	4	248	0.00	29.989 
19:00	16.5	16.5	16.5	78	10.9	2	4	248	0.00	29.991 
19:05	16.5	16.5	16.5	78	10.9	1	4	248	0.00	29.991 
19:10	16.5	16.5	16.5	78	10.9	1	3	248	0.00	29.991 
19:15	16.5	16.5	16.5	78	10.9	1	2	248	0.00	29.991 
19:20	16.5	16.5	16.5	78	10.9	1	3	248	0.00	29.991 
19:25	16.5	16.5	16.5	78	10.9	1	3	248	0.00	29.991 
19:30	16.5	16.5	16.5	78	10.9	1	2	248	0.00	30.001 
19:35	16.5	16.5	16.5	78	10.9	1	2	248	0.00	30.001 
19:40	16.5	16.5	16.5	78	10.9	1	3	248	0.00	30.001 
19:45	16.5	16.5	16.5	78	10.9	2	3	248	0.00	30.003 
19:50	16.5	16.5	16.5	78	10.9	1	5	248	0.00	30.003 
19:55	16.5	16.5	16.5	78	10.9	2	4	248	0.00	30.003 
20:00	16.5	16.5	16.5	78	10.9	1	2	248	0.00	30.006 
20:05	16.5	16.5	16.5	79	11.1	1	3	248	0.00	30.006 
20:10	16.5	16.5	16.5	79	11.1	0	2	248	0.00	30.006 
20:15	16.4	16.4	16.4	78	10.8	1	3	248	0.00	30.006 
20:20	16.1	16.1	16.1	78	10.5	1	3	248	0.00	30.006 
20:25	15.9	15.9	15.9	78	10.3	1	3	248	0.00	30.006 
20:30	15.7	15.7	15.7	78	10.1	1	3	248	0.00	30.007 
20:35	15.6	15.6	15.6	78	10.0	0	2	248	0.00	30.007 
20:40	15.6	15.6	15.6	78	10.0	1	3	248	0.00	30.007 
20:45	15.6	15.6	15.6	78	10.0	1	2	248	0.00	30.009 
20:50	15.7	15.7	15.7	78	10.1	0	2	248	0.00	30.009 
20:55	15.7	15.7	15.7	78	10.1	0	2	248	0.00	30.009 
21:00	15.9	15.9	15.9	78	10.3	1	2	248	0.00	30.013 
21:05	15.7	15.7	15.7	78	10.1	0	4	248	0.00	30.013 
21:10	15.7	15.7	15.7	78	10.1	1	2	248	0.00	30.013 
21:15	15.7	15.7	15.7	78	10.1	1	2	248	0.00	30.016 
21:20	15.7	15.7	15.7	78	10.1	1	2	248	0.00	30.016 
21:25	15.7	15.7	15.7	78	10.1	1	2	248	0.00	30.016 
21:30	15.7	15.7	15.7	79	10.4	0	2	248	0.00	30.022 
21:35	15.6	15.6	15.6	79	10.3	1	3	248	0.00	30.022 
21:40	15.4	15.4	15.4	79	10.1	0	2	248	0.00	30.022 
21:45	15.2	15.2	15.2	79	9.9	0	2	248	0.00	30.030 
21:50	15.1	15.1	15.1	79	9.8	0	1	248	0.00	30.030 
21:55	14.9	14.9	14.9	79	9.6	0	2	248	0.00	30.030 
22:00	14.8	14.8	14.8	80	9.8	0	2	248	0.00	30.042 
22:05	14.8	14.8	14.8	80	9.8	0	1	248	0.00	30.042 
22:10	14.6	14.6	14.6	80	9.6	0	2	248	0.00	30.042 
22:15	14.4	14.4	14.4	80	9.4	0	2	248	0.00	30.046 
22:20	14.3	14.3	14.3	80	9.3	0	1	248	0.00	30.046 
22:25	14.3	14.3	14.3	80	9.3	0	1	248	0.00	30.046 
22:30	14.0	14.0	14.0	80	9.0	0	1	248	0.00	30.047 
22:35	14.0	14.0	14.0	81	9.3	0	0	---	0.00	30.047 
22:40	13.8	13.8	13.8	81	9.1	0	0	---	0.00	30.047 
22:45	13.8	13.8	13.8	81	9.1	0	0	---	0.00	30.052 
22:50	13.8	13.8	13.8	81	9.1	0	0	---	0.00	30.052 
22:55	13.8	13.8	13.8	82	9.3	0	1	248	0.00	30.052 
23:00	14.0	14.0	14.0	82	9.5	0	1	248	0.00	30.060 
23:05	14.0	14.0	14.0	82	9.5	0	0	---	0.00	30.060 
23:10	14.0	14.0	14.0	82	9.5	0	0	---	0.00	30.060 
23:15	14.1	14.1	14.1	82	9.6	0	1	248	0.00	30.061 
23:20	14.1	14.1	14.1	82	9.6	0	1	248	0.00	30.061 
23:25	14.1	14.1	14.1	82	9.6	0	1	248	0.00	30.061 
23:30	14.1	14.1	14.1	82	9.6	0	1	248	0.00	30.069 
23:35	14.1	14.1	14.1	82	9.6	0	1	248	0.00	30.069 
23:40	14.1	14.1	14.1	82	9.6	0	1	248	0.00	30.069 
23:45	14.1	14.1	14.1	82	9.6	0	2	248	0.00	30.077 
23:50	14.1	14.1	14.1	83	9.9	0	1	248	0.00	30.077 
23:55	14.3	14.3	14.3	83	10.1	0	1	248	0.00	30.077 

CoCoRaHS
IN-AL-39
A2 Web Hosting
Creative Commons License
GoDaddy
search engine by freefind advanced

loaded 2018-11-14 00:03:43 • last modified 2010-11-18 10:43:29
Privacy PolicyDisclaimer
• wx.awcolley.com is powered by PmWiki v.2002016 •
• all content (unless otherwise noted) © 2018 A W Colley